sensor_id;sensor_type;location;lat;lon;timestamp;P1;durP1;ratioP1;P2;durP2;ratioP2
3297;SDS011;1661;53.572;10.174;2024-03-25T00:01:27;10.13;;;4.00;;
3297;SDS011;1661;53.572;10.174;2024-03-25T00:03:53;8.63;;;4.13;;
3297;SDS011;1661;53.572;10.174;2024-03-25T00:06:21;13.53;;;4.77;;
3297;SDS011;1661;53.572;10.174;2024-03-25T00:08:47;10.43;;;3.70;;
3297;SDS011;1661;53.572;10.174;2024-03-25T00:11:14;10.50;;;3.57;;
3297;SDS011;1661;53.572;10.174;2024-03-25T00:13:40;8.67;;;3.33;;
3297;SDS011;1661;53.572;10.174;2024-03-25T00:16:07;8.10;;;3.90;;
3297;SDS011;1661;53.572;10.174;2024-03-25T00:18:35;8.47;;;4.60;;
3297;SDS011;1661;53.572;10.174;2024-03-25T00:21:02;11.37;;;3.50;;
3297;SDS011;1661;53.572;10.174;2024-03-25T00:23:27;5.30;;;3.30;;
3297;SDS011;1661;53.572;10.174;2024-03-25T00:25:54;9.47;;;3.67;;
3297;SDS011;1661;53.572;10.174;2024-03-25T00:28:20;7.17;;;3.37;;
3297;SDS011;1661;53.572;10.174;2024-03-25T00:30:47;6.43;;;3.80;;
3297;SDS011;1661;53.572;10.174;2024-03-25T00:33:13;8.63;;;3.70;;
3297;SDS011;1661;53.572;10.174;2024-03-25T00:35:43;6.87;;;3.13;;
3297;SDS011;1661;53.572;10.174;2024-03-25T00:38:10;6.43;;;2.60;;
3297;SDS011;1661;53.572;10.174;2024-03-25T00:40:36;7.50;;;3.57;;
3297;SDS011;1661;53.572;10.174;2024-03-25T00:43:03;7.20;;;3.00;;
3297;SDS011;1661;53.572;10.174;2024-03-25T00:45:29;9.83;;;3.30;;
3297;SDS011;1661;53.572;10.174;2024-03-25T00:47:57;9.60;;;3.97;;
3297;SDS011;1661;53.572;10.174;2024-03-25T00:50:24;11.10;;;3.77;;
3297;SDS011;1661;53.572;10.174;2024-03-25T00:52:52;6.90;;;3.17;;
3297;SDS011;1661;53.572;10.174;2024-03-25T00:55:18;12.63;;;4.00;;
3297;SDS011;1661;53.572;10.174;2024-03-25T00:57:45;6.97;;;4.27;;
3297;SDS011;1661;53.572;10.174;2024-03-25T01:00:13;12.30;;;4.83;;
3297;SDS011;1661;53.572;10.174;2024-03-25T01:02:40;10.20;;;4.47;;
3297;SDS011;1661;53.572;10.174;2024-03-25T01:05:07;5.17;;;3.70;;
3297;SDS011;1661;53.572;10.174;2024-03-25T01:07:34;15.03;;;4.17;;
3297;SDS011;1661;53.572;10.174;2024-03-25T01:10:01;5.60;;;4.30;;
3297;SDS011;1661;53.572;10.174;2024-03-25T01:12:28;14.10;;;4.73;;
3297;SDS011;1661;53.572;10.174;2024-03-25T01:14:54;9.90;;;4.13;;
3297;SDS011;1661;53.572;10.174;2024-03-25T01:17:20;5.83;;;3.20;;
3297;SDS011;1661;53.572;10.174;2024-03-25T01:19:46;9.03;;;3.90;;
3297;SDS011;1661;53.572;10.174;2024-03-25T01:22:13;11.27;;;4.97;;
3297;SDS011;1661;53.572;10.174;2024-03-25T01:24:39;12.90;;;4.43;;
3297;SDS011;1661;53.572;10.174;2024-03-25T01:27:07;9.30;;;4.50;;
3297;SDS011;1661;53.572;10.174;2024-03-25T01:29:33;15.07;;;5.20;;
3297;SDS011;1661;53.572;10.174;2024-03-25T01:32:00;11.93;;;4.87;;
3297;SDS011;1661;53.572;10.174;2024-03-25T01:34:27;12.93;;;4.00;;
3297;SDS011;1661;53.572;10.174;2024-03-25T01:36:54;7.50;;;4.63;;
3297;SDS011;1661;53.572;10.174;2024-03-25T01:39:20;12.13;;;4.33;;
3297;SDS011;1661;53.572;10.174;2024-03-25T01:41:47;20.30;;;4.93;;
3297;SDS011;1661;53.572;10.174;2024-03-25T01:44:14;10.37;;;3.70;;
3297;SDS011;1661;53.572;10.174;2024-03-25T01:46:41;15.30;;;5.50;;
3297;SDS011;1661;53.572;10.174;2024-03-25T01:49:08;11.33;;;4.77;;
3297;SDS011;1661;53.572;10.174;2024-03-25T01:51:35;15.67;;;5.07;;
3297;SDS011;1661;53.572;10.174;2024-03-25T01:54:03;9.50;;;4.67;;
3297;SDS011;1661;53.572;10.174;2024-03-25T01:56:31;17.27;;;5.90;;
3297;SDS011;1661;53.572;10.174;2024-03-25T01:58:58;18.50;;;5.70;;
3297;SDS011;1661;53.572;10.174;2024-03-25T02:01:26;10.00;;;5.37;;
3297;SDS011;1661;53.572;10.174;2024-03-25T02:03:53;16.07;;;4.60;;
3297;SDS011;1661;53.572;10.174;2024-03-25T02:06:21;14.13;;;4.87;;
3297;SDS011;1661;53.572;10.174;2024-03-25T02:08:49;9.77;;;4.70;;
3297;SDS011;1661;53.572;10.174;2024-03-25T02:11:16;10.50;;;5.30;;
3297;SDS011;1661;53.572;10.174;2024-03-25T02:13:43;13.50;;;5.10;;
3297;SDS011;1661;53.572;10.174;2024-03-25T02:16:10;10.93;;;4.13;;
3297;SDS011;1661;53.572;10.174;2024-03-25T02:18:37;10.53;;;5.00;;
3297;SDS011;1661;53.572;10.174;2024-03-25T02:21:04;7.17;;;4.60;;
3297;SDS011;1661;53.572;10.174;2024-03-25T02:23:30;14.60;;;6.60;;
3297;SDS011;1661;53.572;10.174;2024-03-25T02:26:00;11.00;;;4.13;;
3297;SDS011;1661;53.572;10.174;2024-03-25T02:28:26;5.83;;;4.10;;
3297;SDS011;1661;53.572;10.174;2024-03-25T02:30:54;24.03;;;5.00;;
3297;SDS011;1661;53.572;10.174;2024-03-25T02:33:19;8.60;;;4.53;;
3297;SDS011;1661;53.572;10.174;2024-03-25T02:35:46;10.53;;;3.97;;
3297;SDS011;1661;53.572;10.174;2024-03-25T02:38:12;7.70;;;3.83;;
3297;SDS011;1661;53.572;10.174;2024-03-25T02:40:40;7.50;;;4.60;;
3297;SDS011;1661;53.572;10.174;2024-03-25T02:43:07;6.43;;;4.53;;
3297;SDS011;1661;53.572;10.174;2024-03-25T02:45:37;9.00;;;4.83;;
3297;SDS011;1661;53.572;10.174;2024-03-25T02:48:03;7.13;;;3.50;;
3297;SDS011;1661;53.572;10.174;2024-03-25T02:50:30;3.90;;;3.10;;
3297;SDS011;1661;53.572;10.174;2024-03-25T02:52:56;6.13;;;3.03;;
3297;SDS011;1661;53.572;10.174;2024-03-25T02:55:23;3.70;;;2.87;;
3297;SDS011;1661;53.572;10.174;2024-03-25T02:57:48;14.40;;;3.73;;
3297;SDS011;1661;53.572;10.174;2024-03-25T03:00:17;7.27;;;2.70;;
3297;SDS011;1661;53.572;10.174;2024-03-25T03:02:43;5.40;;;3.10;;
3297;SDS011;1661;53.572;10.174;2024-03-25T03:05:09;7.20;;;2.93;;
3297;SDS011;1661;53.572;10.174;2024-03-25T03:07:35;7.67;;;2.27;;
3297;SDS011;1661;53.572;10.174;2024-03-25T03:10:02;5.37;;;2.70;;
3297;SDS011;1661;53.572;10.174;2024-03-25T03:12:28;4.67;;;2.60;;
3297;SDS011;1661;53.572;10.174;2024-03-25T03:14:55;9.77;;;3.57;;
3297;SDS011;1661;53.572;10.174;2024-03-25T03:17:22;7.80;;;3.60;;
3297;SDS011;1661;53.572;10.174;2024-03-25T03:19:49;8.03;;;2.90;;
3297;SDS011;1661;53.572;10.174;2024-03-25T03:22:14;7.23;;;2.60;;
3297;SDS011;1661;53.572;10.174;2024-03-25T03:24:41;8.90;;;3.30;;
3297;SDS011;1661;53.572;10.174;2024-03-25T03:27:07;5.90;;;3.50;;
3297;SDS011;1661;53.572;10.174;2024-03-25T03:29:34;5.70;;;3.37;;
3297;SDS011;1661;53.572;10.174;2024-03-25T03:32:00;4.00;;;3.10;;
3297;SDS011;1661;53.572;10.174;2024-03-25T03:34:29;9.03;;;3.30;;
3297;SDS011;1661;53.572;10.174;2024-03-25T03:36:55;7.10;;;3.03;;
3297;SDS011;1661;53.572;10.174;2024-03-25T03:39:21;5.53;;;3.67;;
3297;SDS011;1661;53.572;10.174;2024-03-25T03:41:47;7.33;;;3.43;;
3297;SDS011;1661;53.572;10.174;2024-03-25T03:44:14;16.03;;;3.43;;
3297;SDS011;1661;53.572;10.174;2024-03-25T03:46:40;8.03;;;3.73;;
3297;SDS011;1661;53.572;10.174;2024-03-25T03:49:07;6.80;;;3.10;;
3297;SDS011;1661;53.572;10.174;2024-03-25T03:51:34;7.60;;;4.10;;
3297;SDS011;1661;53.572;10.174;2024-03-25T03:54:01;9.67;;;3.57;;
3297;SDS011;1661;53.572;10.174;2024-03-25T03:56:27;7.13;;;4.50;;
3297;SDS011;1661;53.572;10.174;2024-03-25T03:58:53;11.17;;;3.47;;
3297;SDS011;1661;53.572;10.174;2024-03-25T04:01:19;12.37;;;3.83;;
3297;SDS011;1661;53.572;10.174;2024-03-25T04:03:46;7.47;;;3.27;;
3297;SDS011;1661;53.572;10.174;2024-03-25T04:06:12;13.20;;;3.10;;
3297;SDS011;1661;53.572;10.174;2024-03-25T04:08:41;12.83;;;4.97;;
3297;SDS011;1661;53.572;10.174;2024-03-25T04:11:07;6.70;;;3.10;;
3297;SDS011;1661;53.572;10.174;2024-03-25T04:13:35;8.80;;;3.70;;
3297;SDS011;1661;53.572;10.174;2024-03-25T04:16:01;9.00;;;2.93;;
3297;SDS011;1661;53.572;10.174;2024-03-25T04:18:29;4.80;;;2.60;;
3297;SDS011;1661;53.572;10.174;2024-03-25T04:20:55;6.43;;;3.47;;
3297;SDS011;1661;53.572;10.174;2024-03-25T04:23:22;31.77;;;5.00;;
3297;SDS011;1661;53.572;10.174;2024-03-25T04:25:50;13.33;;;2.97;;
3297;SDS011;1661;53.572;10.174;2024-03-25T04:28:17;6.40;;;3.00;;
3297;SDS011;1661;53.572;10.174;2024-03-25T04:30:43;15.60;;;3.43;;
3297;SDS011;1661;53.572;10.174;2024-03-25T04:33:10;4.93;;;2.80;;
3297;SDS011;1661;53.572;10.174;2024-03-25T04:35:35;3.90;;;2.90;;
3297;SDS011;1661;53.572;10.174;2024-03-25T04:38:02;9.50;;;3.13;;
3297;SDS011;1661;53.572;10.174;2024-03-25T04:40:28;6.23;;;2.80;;
3297;SDS011;1661;53.572;10.174;2024-03-25T04:42:56;5.20;;;2.97;;
3297;SDS011;1661;53.572;10.174;2024-03-25T04:45:21;3.00;;;2.23;;
3297;SDS011;1661;53.572;10.174;2024-03-25T04:47:47;5.30;;;3.17;;
3297;SDS011;1661;53.572;10.174;2024-03-25T04:50:13;5.30;;;2.20;;
3297;SDS011;1661;53.572;10.174;2024-03-25T04:52:39;6.07;;;2.67;;
3297;SDS011;1661;53.572;10.174;2024-03-25T04:55:05;6.90;;;2.80;;
3297;SDS011;1661;53.572;10.174;2024-03-25T04:57:31;6.90;;;2.30;;
3297;SDS011;1661;53.572;10.174;2024-03-25T04:59:58;4.83;;;2.57;;
3297;SDS011;1661;53.572;10.174;2024-03-25T05:02:24;7.60;;;3.03;;
3297;SDS011;1661;53.572;10.174;2024-03-25T05:04:50;6.10;;;3.20;;
3297;SDS011;1661;53.572;10.174;2024-03-25T05:07:16;4.60;;;2.37;;
3297;SDS011;1661;53.572;10.174;2024-03-25T05:09:42;5.73;;;2.27;;
3297;SDS011;1661;53.572;10.174;2024-03-25T05:12:08;2.20;;;1.87;;
3297;SDS011;1661;53.572;10.174;2024-03-25T05:14:34;2.90;;;2.37;;
3297;SDS011;1661;53.572;10.174;2024-03-25T05:17:01;2.30;;;1.90;;
3297;SDS011;1661;53.572;10.174;2024-03-25T05:19:27;2.97;;;1.67;;
3297;SDS011;1661;53.572;10.174;2024-03-25T05:21:52;5.80;;;2.00;;
3297;SDS011;1661;53.572;10.174;2024-03-25T05:24:18;4.33;;;2.27;;
3297;SDS011;1661;53.572;10.174;2024-03-25T05:26:44;2.13;;;1.70;;
3297;SDS011;1661;53.572;10.174;2024-03-25T05:29:10;12.40;;;1.97;;
3297;SDS011;1661;53.572;10.174;2024-03-25T05:31:36;5.67;;;2.00;;
3297;SDS011;1661;53.572;10.174;2024-03-25T05:34:03;3.33;;;2.00;;
3297;SDS011;1661;53.572;10.174;2024-03-25T05:36:29;5.83;;;2.43;;
3297;SDS011;1661;53.572;10.174;2024-03-25T05:38:55;7.07;;;2.67;;
3297;SDS011;1661;53.572;10.174;2024-03-25T05:41:21;2.37;;;1.83;;
3297;SDS011;1661;53.572;10.174;2024-03-25T05:43:47;3.00;;;2.23;;
3297;SDS011;1661;53.572;10.174;2024-03-25T05:46:13;2.90;;;2.60;;
3297;SDS011;1661;53.572;10.174;2024-03-25T05:48:38;3.60;;;2.00;;
3297;SDS011;1661;53.572;10.174;2024-03-25T05:51:06;4.77;;;2.10;;
3297;SDS011;1661;53.572;10.174;2024-03-25T05:53:33;4.33;;;2.13;;
3297;SDS011;1661;53.572;10.174;2024-03-25T05:55:59;8.90;;;3.17;;
3297;SDS011;1661;53.572;10.174;2024-03-25T05:58:25;8.60;;;2.80;;
3297;SDS011;1661;53.572;10.174;2024-03-25T06:00:51;8.50;;;2.20;;
3297;SDS011;1661;53.572;10.174;2024-03-25T06:03:18;4.17;;;2.57;;
3297;SDS011;1661;53.572;10.174;2024-03-25T06:05:44;6.80;;;2.40;;
3297;SDS011;1661;53.572;10.174;2024-03-25T06:08:12;6.90;;;2.57;;
3297;SDS011;1661;53.572;10.174;2024-03-25T06:10:41;4.10;;;2.50;;
3297;SDS011;1661;53.572;10.174;2024-03-25T06:13:07;3.83;;;2.93;;
3297;SDS011;1661;53.572;10.174;2024-03-25T06:15:33;2.53;;;2.00;;
3297;SDS011;1661;53.572;10.174;2024-03-25T06:17:58;3.07;;;2.70;;
3297;SDS011;1661;53.572;10.174;2024-03-25T06:20:24;5.30;;;3.50;;
3297;SDS011;1661;53.572;10.174;2024-03-25T06:22:50;3.60;;;3.10;;
3297;SDS011;1661;53.572;10.174;2024-03-25T06:25:17;5.00;;;2.40;;
3297;SDS011;1661;53.572;10.174;2024-03-25T06:27:43;6.83;;;2.80;;
3297;SDS011;1661;53.572;10.174;2024-03-25T06:30:10;2.60;;;1.73;;
3297;SDS011;1661;53.572;10.174;2024-03-25T06:32:55;3.13;;;2.37;;
3297;SDS011;1661;53.572;10.174;2024-03-25T06:35:39;7.80;;;2.50;;
3297;SDS011;1661;53.572;10.174;2024-03-25T06:38:07;6.73;;;2.70;;
3297;SDS011;1661;53.572;10.174;2024-03-25T06:40:34;3.00;;;2.30;;
3297;SDS011;1661;53.572;10.174;2024-03-25T06:43:00;6.77;;;3.10;;
3297;SDS011;1661;53.572;10.174;2024-03-25T06:45:26;2.70;;;2.27;;
3297;SDS011;1661;53.572;10.174;2024-03-25T06:47:52;11.60;;;3.07;;
3297;SDS011;1661;53.572;10.174;2024-03-25T06:50:17;3.00;;;2.23;;
3297;SDS011;1661;53.572;10.174;2024-03-25T06:52:43;7.53;;;3.87;;
3297;SDS011;1661;53.572;10.174;2024-03-25T06:55:09;3.87;;;2.70;;
3297;SDS011;1661;53.572;10.174;2024-03-25T06:57:37;6.43;;;3.60;;
3297;SDS011;1661;53.572;10.174;2024-03-25T07:00:03;5.00;;;3.10;;
3297;SDS011;1661;53.572;10.174;2024-03-25T07:02:29;3.63;;;3.33;;
3297;SDS011;1661;53.572;10.174;2024-03-25T07:04:55;6.20;;;3.50;;
3297;SDS011;1661;53.572;10.174;2024-03-25T07:07:21;9.30;;;3.73;;
3297;SDS011;1661;53.572;10.174;2024-03-25T07:09:47;4.73;;;2.93;;
3297;SDS011;1661;53.572;10.174;2024-03-25T07:12:13;4.40;;;3.20;;
3297;SDS011;1661;53.572;10.174;2024-03-25T07:14:40;7.80;;;2.80;;
3297;SDS011;1661;53.572;10.174;2024-03-25T07:17:06;7.27;;;2.40;;
3297;SDS011;1661;53.572;10.174;2024-03-25T07:19:31;4.73;;;2.73;;
3297;SDS011;1661;53.572;10.174;2024-03-25T07:21:57;7.03;;;3.00;;
3297;SDS011;1661;53.572;10.174;2024-03-25T07:24:23;7.47;;;3.07;;
3297;SDS011;1661;53.572;10.174;2024-03-25T07:26:49;6.17;;;2.80;;
3297;SDS011;1661;53.572;10.174;2024-03-25T07:29:15;5.93;;;2.40;;
3297;SDS011;1661;53.572;10.174;2024-03-25T07:31:42;7.97;;;3.07;;
3297;SDS011;1661;53.572;10.174;2024-03-25T07:34:08;2.47;;;2.27;;
3297;SDS011;1661;53.572;10.174;2024-03-25T07:36:34;6.53;;;2.70;;
3297;SDS011;1661;53.572;10.174;2024-03-25T07:39:00;4.07;;;2.80;;
3297;SDS011;1661;53.572;10.174;2024-03-25T07:41:26;6.23;;;2.90;;
3297;SDS011;1661;53.572;10.174;2024-03-25T07:43:52;11.43;;;3.70;;
3297;SDS011;1661;53.572;10.174;2024-03-25T07:46:18;5.60;;;2.57;;
3297;SDS011;1661;53.572;10.174;2024-03-25T07:48:45;5.33;;;2.90;;
3297;SDS011;1661;53.572;10.174;2024-03-25T07:51:11;7.83;;;3.60;;
3297;SDS011;1661;53.572;10.174;2024-03-25T07:53:36;5.50;;;2.87;;
3297;SDS011;1661;53.572;10.174;2024-03-25T07:56:02;5.03;;;3.03;;
3297;SDS011;1661;53.572;10.174;2024-03-25T07:58:29;4.73;;;2.57;;
3297;SDS011;1661;53.572;10.174;2024-03-25T08:00:55;5.73;;;3.00;;
3297;SDS011;1661;53.572;10.174;2024-03-25T08:03:21;5.10;;;2.57;;
3297;SDS011;1661;53.572;10.174;2024-03-25T08:05:48;6.43;;;2.20;;
3297;SDS011;1661;53.572;10.174;2024-03-25T08:08:14;10.90;;;3.20;;
3297;SDS011;1661;53.572;10.174;2024-03-25T08:10:40;6.30;;;2.83;;
3297;SDS011;1661;53.572;10.174;2024-03-25T08:13:06;7.73;;;2.73;;
3297;SDS011;1661;53.572;10.174;2024-03-25T08:15:32;10.40;;;4.60;;
3297;SDS011;1661;53.572;10.174;2024-03-25T08:17:58;9.10;;;4.07;;
3297;SDS011;1661;53.572;10.174;2024-03-25T08:20:24;6.63;;;4.27;;
3297;SDS011;1661;53.572;10.174;2024-03-25T08:22:51;6.60;;;3.10;;
3297;SDS011;1661;53.572;10.174;2024-03-25T08:25:17;7.13;;;2.97;;
3297;SDS011;1661;53.572;10.174;2024-03-25T08:27:43;7.17;;;2.43;;
3297;SDS011;1661;53.572;10.174;2024-03-25T08:30:09;6.70;;;2.47;;
3297;SDS011;1661;53.572;10.174;2024-03-25T08:32:36;4.53;;;2.00;;
3297;SDS011;1661;53.572;10.174;2024-03-25T08:35:02;11.87;;;3.07;;
3297;SDS011;1661;53.572;10.174;2024-03-25T08:37:28;7.63;;;2.97;;
3297;SDS011;1661;53.572;10.174;2024-03-25T08:39:55;8.70;;;2.13;;
3297;SDS011;1661;53.572;10.174;2024-03-25T08:42:21;9.13;;;2.20;;
3297;SDS011;1661;53.572;10.174;2024-03-25T08:44:47;3.00;;;2.10;;
3297;SDS011;1661;53.572;10.174;2024-03-25T08:47:13;7.30;;;3.20;;
3297;SDS011;1661;53.572;10.174;2024-03-25T08:49:38;5.40;;;1.87;;
3297;SDS011;1661;53.572;10.174;2024-03-25T08:52:04;4.30;;;2.37;;
3297;SDS011;1661;53.572;10.174;2024-03-25T08:54:30;8.40;;;4.63;;
3297;SDS011;1661;53.572;10.174;2024-03-25T08:56:58;7.20;;;5.60;;
3297;SDS011;1661;53.572;10.174;2024-03-25T08:59:23;12.83;;;5.70;;
3297;SDS011;1661;53.572;10.174;2024-03-25T09:01:49;9.10;;;4.10;;
3297;SDS011;1661;53.572;10.174;2024-03-25T09:04:15;7.00;;;5.00;;
3297;SDS011;1661;53.572;10.174;2024-03-25T09:06:41;13.53;;;4.07;;
3297;SDS011;1661;53.572;10.174;2024-03-25T09:09:07;8.70;;;4.57;;
3297;SDS011;1661;53.572;10.174;2024-03-25T09:11:51;5.67;;;3.67;;
3297;SDS011;1661;53.572;10.174;2024-03-25T09:14:18;13.07;;;4.63;;
3297;SDS011;1661;53.572;10.174;2024-03-25T09:16:44;8.40;;;4.33;;
3297;SDS011;1661;53.572;10.174;2024-03-25T09:19:10;10.33;;;5.07;;
3297;SDS011;1661;53.572;10.174;2024-03-25T09:21:36;14.40;;;5.40;;
3297;SDS011;1661;53.572;10.174;2024-03-25T09:24:02;16.57;;;4.40;;
3297;SDS011;1661;53.572;10.174;2024-03-25T09:26:28;17.23;;;3.87;;
3297;SDS011;1661;53.572;10.174;2024-03-25T09:28:54;9.70;;;2.83;;
3297;SDS011;1661;53.572;10.174;2024-03-25T09:31:21;7.50;;;2.87;;
3297;SDS011;1661;53.572;10.174;2024-03-25T09:33:47;14.93;;;4.00;;
3297;SDS011;1661;53.572;10.174;2024-03-25T09:36:13;10.43;;;2.90;;
3297;SDS011;1661;53.572;10.174;2024-03-25T09:38:39;11.20;;;3.90;;
3297;SDS011;1661;53.572;10.174;2024-03-25T09:41:04;9.20;;;3.70;;
3297;SDS011;1661;53.572;10.174;2024-03-25T09:43:33;9.03;;;3.70;;
3297;SDS011;1661;53.572;10.174;2024-03-25T09:46:07;11.83;;;2.80;;
3297;SDS011;1661;53.572;10.174;2024-03-25T09:48:34;13.03;;;4.10;;
3297;SDS011;1661;53.572;10.174;2024-03-25T09:51:01;14.90;;;2.20;;
3297;SDS011;1661;53.572;10.174;2024-03-25T09:53:28;5.80;;;2.33;;
3297;SDS011;1661;53.572;10.174;2024-03-25T09:55:54;7.00;;;2.60;;
3297;SDS011;1661;53.572;10.174;2024-03-25T09:58:22;24.50;;;3.50;;
3297;SDS011;1661;53.572;10.174;2024-03-25T10:00:50;9.03;;;3.20;;
3297;SDS011;1661;53.572;10.174;2024-03-25T10:03:16;12.73;;;3.77;;
3297;SDS011;1661;53.572;10.174;2024-03-25T10:05:43;9.57;;;3.37;;
3297;SDS011;1661;53.572;10.174;2024-03-25T10:08:09;4.90;;;2.33;;
3297;SDS011;1661;53.572;10.174;2024-03-25T10:10:35;4.60;;;2.43;;
3297;SDS011;1661;53.572;10.174;2024-03-25T10:13:02;17.67;;;3.90;;
3297;SDS011;1661;53.572;10.174;2024-03-25T10:15:28;21.43;;;3.00;;
3297;SDS011;1661;53.572;10.174;2024-03-25T10:17:54;9.63;;;3.27;;
3297;SDS011;1661;53.572;10.174;2024-03-25T10:20:20;12.13;;;4.87;;
3297;SDS011;1661;53.572;10.174;2024-03-25T10:22:47;6.13;;;3.10;;
3297;SDS011;1661;53.572;10.174;2024-03-25T10:25:20;7.20;;;2.43;;
3297;SDS011;1661;53.572;10.174;2024-03-25T10:27:54;6.50;;;2.07;;
3297;SDS011;1661;53.572;10.174;2024-03-25T10:30:20;12.60;;;2.90;;
3297;SDS011;1661;53.572;10.174;2024-03-25T10:32:56;10.50;;;3.33;;
3297;SDS011;1661;53.572;10.174;2024-03-25T10:35:24;9.00;;;2.63;;
3297;SDS011;1661;53.572;10.174;2024-03-25T10:37:53;13.43;;;2.27;;
3297;SDS011;1661;53.572;10.174;2024-03-25T10:40:24;6.33;;;2.33;;
3297;SDS011;1661;53.572;10.174;2024-03-25T10:42:52;8.23;;;2.70;;
3297;SDS011;1661;53.572;10.174;2024-03-25T10:45:26;10.20;;;3.03;;
3297;SDS011;1661;53.572;10.174;2024-03-25T10:47:55;8.10;;;2.50;;
3297;SDS011;1661;53.572;10.174;2024-03-25T10:50:24;9.53;;;3.50;;
3297;SDS011;1661;53.572;10.174;2024-03-25T10:52:55;14.30;;;3.90;;
3297;SDS011;1661;53.572;10.174;2024-03-25T10:55:23;7.63;;;3.03;;
3297;SDS011;1661;53.572;10.174;2024-03-25T10:57:51;12.17;;;3.43;;
3297;SDS011;1661;53.572;10.174;2024-03-25T11:00:19;10.90;;;3.30;;
3297;SDS011;1661;53.572;10.174;2024-03-25T11:02:47;7.40;;;3.10;;
3297;SDS011;1661;53.572;10.174;2024-03-25T11:05:14;7.73;;;3.10;;
3297;SDS011;1661;53.572;10.174;2024-03-25T11:07:41;10.20;;;3.97;;
3297;SDS011;1661;53.572;10.174;2024-03-25T11:10:08;10.87;;;2.93;;
3297;SDS011;1661;53.572;10.174;2024-03-25T11:12:35;6.30;;;2.53;;
3297;SDS011;1661;53.572;10.174;2024-03-25T11:15:02;8.53;;;3.03;;
3297;SDS011;1661;53.572;10.174;2024-03-25T11:17:29;8.00;;;2.60;;
3297;SDS011;1661;53.572;10.174;2024-03-25T11:20:05;6.87;;;2.87;;
3297;SDS011;1661;53.572;10.174;2024-03-25T11:22:32;13.37;;;3.90;;
3297;SDS011;1661;53.572;10.174;2024-03-25T11:25:04;5.80;;;1.93;;
3297;SDS011;1661;53.572;10.174;2024-03-25T11:27:33;3.97;;;2.00;;
3297;SDS011;1661;53.572;10.174;2024-03-25T11:30:01;6.27;;;2.37;;
3297;SDS011;1661;53.572;10.174;2024-03-25T11:32:28;7.50;;;2.53;;
3297;SDS011;1661;53.572;10.174;2024-03-25T11:34:54;7.53;;;3.00;;
3297;SDS011;1661;53.572;10.174;2024-03-25T11:37:20;9.03;;;2.83;;
3297;SDS011;1661;53.572;10.174;2024-03-25T11:39:46;10.20;;;3.10;;
3297;SDS011;1661;53.572;10.174;2024-03-25T11:42:12;11.30;;;3.20;;
3297;SDS011;1661;53.572;10.174;2024-03-25T11:44:39;11.73;;;3.00;;
3297;SDS011;1661;53.572;10.174;2024-03-25T11:47:06;3.57;;;2.60;;
3297;SDS011;1661;53.572;10.174;2024-03-25T11:49:33;5.03;;;1.97;;
3297;SDS011;1661;53.572;10.174;2024-03-25T11:51:59;6.60;;;2.77;;
3297;SDS011;1661;53.572;10.174;2024-03-25T11:54:27;8.00;;;2.20;;
3297;SDS011;1661;53.572;10.174;2024-03-25T11:56:53;5.40;;;2.80;;
3297;SDS011;1661;53.572;10.174;2024-03-25T11:59:20;4.50;;;2.10;;
3297;SDS011;1661;53.572;10.174;2024-03-25T12:01:47;9.83;;;2.80;;
3297;SDS011;1661;53.572;10.174;2024-03-25T12:04:16;7.23;;;2.17;;
3297;SDS011;1661;53.572;10.174;2024-03-25T12:06:43;12.30;;;2.67;;
3297;SDS011;1661;53.572;10.174;2024-03-25T12:09:10;6.30;;;2.27;;
3297;SDS011;1661;53.572;10.174;2024-03-25T12:11:54;6.40;;;2.60;;
3297;SDS011;1661;53.572;10.174;2024-03-25T12:14:20;11.07;;;2.30;;
3297;SDS011;1661;53.572;10.174;2024-03-25T12:16:48;2.60;;;1.70;;
3297;SDS011;1661;53.572;10.174;2024-03-25T12:19:15;7.97;;;2.60;;
3297;SDS011;1661;53.572;10.174;2024-03-25T12:21:41;7.70;;;2.30;;
3297;SDS011;1661;53.572;10.174;2024-03-25T12:24:07;3.93;;;1.90;;
3297;SDS011;1661;53.572;10.174;2024-03-25T12:26:33;5.33;;;2.00;;
3297;SDS011;1661;53.572;10.174;2024-03-25T12:29:00;7.87;;;2.97;;
3297;SDS011;1661;53.572;10.174;2024-03-25T12:31:26;6.07;;;2.97;;
3297;SDS011;1661;53.572;10.174;2024-03-25T12:33:53;4.53;;;2.47;;
3297;SDS011;1661;53.572;10.174;2024-03-25T12:36:20;15.03;;;3.17;;
3297;SDS011;1661;53.572;10.174;2024-03-25T12:38:53;7.93;;;2.73;;
3297;SDS011;1661;53.572;10.174;2024-03-25T12:41:21;13.17;;;3.67;;
3297;SDS011;1661;53.572;10.174;2024-03-25T12:43:49;6.80;;;3.30;;
3297;SDS011;1661;53.572;10.174;2024-03-25T12:46:15;10.37;;;2.30;;
3297;SDS011;1661;53.572;10.174;2024-03-25T12:48:41;9.13;;;2.83;;
3297;SDS011;1661;53.572;10.174;2024-03-25T12:51:11;10.07;;;2.00;;
3297;SDS011;1661;53.572;10.174;2024-03-25T12:53:38;13.03;;;3.10;;
3297;SDS011;1661;53.572;10.174;2024-03-25T12:56:05;8.93;;;2.73;;
3297;SDS011;1661;53.572;10.174;2024-03-25T12:58:31;6.53;;;3.07;;
3297;SDS011;1661;53.572;10.174;2024-03-25T13:00:56;12.90;;;4.17;;
3297;SDS011;1661;53.572;10.174;2024-03-25T13:03:22;12.10;;;3.40;;
3297;SDS011;1661;53.572;10.174;2024-03-25T13:05:48;5.00;;;3.00;;
3297;SDS011;1661;53.572;10.174;2024-03-25T13:08:15;6.63;;;3.23;;
3297;SDS011;1661;53.572;10.174;2024-03-25T13:10:41;8.90;;;2.97;;
3297;SDS011;1661;53.572;10.174;2024-03-25T13:13:07;9.67;;;3.50;;
3297;SDS011;1661;53.572;10.174;2024-03-25T13:15:33;8.87;;;3.40;;
3297;SDS011;1661;53.572;10.174;2024-03-25T13:17:59;4.27;;;1.83;;
3297;SDS011;1661;53.572;10.174;2024-03-25T13:20:25;4.93;;;2.77;;
3297;SDS011;1661;53.572;10.174;2024-03-25T13:22:53;4.20;;;2.30;;
3297;SDS011;1661;53.572;10.174;2024-03-25T13:25:22;4.90;;;2.70;;
3297;SDS011;1661;53.572;10.174;2024-03-25T13:27:48;7.03;;;3.83;;
3297;SDS011;1661;53.572;10.174;2024-03-25T13:30:14;10.23;;;3.17;;
3297;SDS011;1661;53.572;10.174;2024-03-25T13:32:40;6.40;;;2.40;;
3297;SDS011;1661;53.572;10.174;2024-03-25T13:35:06;5.60;;;2.60;;
3297;SDS011;1661;53.572;10.174;2024-03-25T13:37:32;14.70;;;2.47;;
3297;SDS011;1661;53.572;10.174;2024-03-25T13:39:58;12.30;;;3.20;;
3297;SDS011;1661;53.572;10.174;2024-03-25T13:42:25;7.87;;;2.53;;
3297;SDS011;1661;53.572;10.174;2024-03-25T13:44:51;3.63;;;2.37;;
3297;SDS011;1661;53.572;10.174;2024-03-25T13:47:17;8.30;;;2.57;;
3297;SDS011;1661;53.572;10.174;2024-03-25T13:49:42;7.60;;;2.70;;
3297;SDS011;1661;53.572;10.174;2024-03-25T13:52:08;6.73;;;2.80;;
3297;SDS011;1661;53.572;10.174;2024-03-25T13:54:34;7.50;;;2.53;;
3297;SDS011;1661;53.572;10.174;2024-03-25T13:57:00;7.17;;;2.30;;
3297;SDS011;1661;53.572;10.174;2024-03-25T13:59:27;6.17;;;2.30;;
3297;SDS011;1661;53.572;10.174;2024-03-25T14:01:53;8.93;;;2.33;;
3297;SDS011;1661;53.572;10.174;2024-03-25T14:04:19;7.37;;;2.37;;
3297;SDS011;1661;53.572;10.174;2024-03-25T14:06:45;4.13;;;2.10;;
3297;SDS011;1661;53.572;10.174;2024-03-25T14:09:22;4.83;;;2.00;;
3297;SDS011;1661;53.572;10.174;2024-03-25T14:11:48;12.50;;;3.10;;
3297;SDS011;1661;53.572;10.174;2024-03-25T14:14:14;6.43;;;2.40;;
3297;SDS011;1661;53.572;10.174;2024-03-25T14:16:41;5.93;;;2.47;;
3297;SDS011;1661;53.572;10.174;2024-03-25T14:19:07;4.63;;;1.90;;
3297;SDS011;1661;53.572;10.174;2024-03-25T14:21:33;5.17;;;2.60;;
3297;SDS011;1661;53.572;10.174;2024-03-25T14:23:59;7.20;;;2.83;;
3297;SDS011;1661;53.572;10.174;2024-03-25T14:26:25;9.90;;;3.40;;
3297;SDS011;1661;53.572;10.174;2024-03-25T14:28:51;6.20;;;2.13;;
3297;SDS011;1661;53.572;10.174;2024-03-25T14:31:16;3.60;;;2.40;;
3297;SDS011;1661;53.572;10.174;2024-03-25T14:33:44;8.53;;;2.37;;
3297;SDS011;1661;53.572;10.174;2024-03-25T14:36:09;6.60;;;2.10;;
3297;SDS011;1661;53.572;10.174;2024-03-25T14:38:35;11.03;;;2.60;;
3297;SDS011;1661;53.572;10.174;2024-03-25T14:41:01;7.37;;;1.83;;
3297;SDS011;1661;53.572;10.174;2024-03-25T14:43:27;8.60;;;3.03;;
3297;SDS011;1661;53.572;10.174;2024-03-25T14:45:53;7.63;;;2.47;;
3297;SDS011;1661;53.572;10.174;2024-03-25T14:48:19;4.27;;;2.13;;
3297;SDS011;1661;53.572;10.174;2024-03-25T14:50:46;9.80;;;2.87;;
3297;SDS011;1661;53.572;10.174;2024-03-25T14:53:12;6.80;;;2.80;;
3297;SDS011;1661;53.572;10.174;2024-03-25T14:55:38;6.97;;;2.70;;